createdAt,value
2018-12-22T00:00:27.050Z,9.80
2018-12-22T00:04:30.702Z,9.80
2018-12-22T00:08:34.329Z,9.80
2018-12-22T00:12:37.969Z,9.50
2018-12-22T00:16:41.637Z,9.60
2018-12-22T00:20:45.256Z,9.70
2018-12-22T00:24:48.899Z,9.70
2018-12-22T00:28:52.518Z,9.80
2018-12-22T00:32:56.172Z,9.80
2018-12-22T00:36:59.797Z,9.90
2018-12-22T00:41:03.459Z,9.80
2018-12-22T00:45:07.284Z,9.90
2018-12-22T00:49:10.917Z,9.80
2018-12-22T00:53:14.545Z,9.70
2018-12-22T00:57:18.197Z,9.80
2018-12-22T01:01:21.797Z,9.70
2018-12-22T01:05:25.453Z,9.70
2018-12-22T01:09:29.146Z,9.70
2018-12-22T01:13:32.789Z,9.70
2018-12-22T01:17:36.457Z,9.60
2018-12-22T01:21:40.059Z,9.70
2018-12-22T01:25:43.770Z,9.80
2018-12-22T01:29:47.413Z,9.70
2018-12-22T01:33:51.133Z,9.70
2018-12-22T01:37:54.777Z,9.70
2018-12-22T01:41:58.377Z,9.70
2018-12-22T01:46:02.004Z,9.70
2018-12-22T01:50:06.375Z,9.60
2018-12-22T01:54:10.007Z,9.60
2018-12-22T01:58:13.699Z,9.70
2018-12-22T02:02:17.334Z,9.80
2018-12-22T02:09:54.189Z,9.70
2018-12-22T02:13:57.826Z,9.80
2018-12-22T02:18:01.489Z,9.80
2018-12-22T02:22:05.096Z,9.80
2018-12-22T02:26:08.739Z,9.80
2018-12-22T02:30:12.417Z,9.70
2018-12-22T02:34:16.158Z,9.80
2018-12-22T02:38:19.774Z,9.80
2018-12-22T02:42:23.377Z,9.70
2018-12-22T02:46:27.030Z,9.80
2018-12-22T02:50:30.673Z,9.80
2018-12-22T02:54:34.377Z,9.80
2018-12-22T02:58:37.999Z,9.70
2018-12-22T03:02:41.574Z,9.80
2018-12-22T03:06:45.174Z,9.70
2018-12-22T03:10:48.797Z,9.80
2018-12-22T03:14:52.420Z,9.80
2018-12-22T03:18:56.118Z,9.80
2018-12-22T03:22:59.690Z,9.80
2018-12-22T03:27:03.355Z,9.90
2018-12-22T03:31:06.953Z,9.90
2018-12-22T03:35:10.570Z,9.90
2018-12-22T03:39:14.302Z,9.90
2018-12-22T03:43:17.922Z,9.90
2018-12-22T03:47:21.542Z,9.90
2018-12-22T03:51:25.198Z,9.90
2018-12-22T03:55:28.803Z,9.90
2018-12-22T03:59:32.493Z,9.90
2018-12-22T04:03:36.124Z,9.80
2018-12-22T04:07:39.718Z,9.90
2018-12-22T04:11:43.323Z,9.80
2018-12-22T04:15:46.963Z,9.90
2018-12-22T04:19:50.565Z,9.80
2018-12-22T04:23:54.204Z,9.90
2018-12-22T04:27:57.785Z,9.80
2018-12-22T04:32:01.380Z,9.80
2018-12-22T04:36:05.139Z,9.80
2018-12-22T04:40:08.753Z,9.80
2018-12-22T04:44:12.394Z,9.80
2018-12-22T04:48:16.001Z,9.80
2018-12-22T04:52:19.624Z,9.80
2018-12-22T04:56:23.286Z,9.80
2018-12-22T05:00:26.895Z,9.80
2018-12-22T05:04:30.495Z,9.80
2018-12-22T05:08:34.189Z,9.80
2018-12-22T05:12:37.854Z,9.80
2018-12-22T05:16:41.517Z,9.80
2018-12-22T05:20:45.152Z,9.80
2018-12-22T05:24:48.854Z,9.80
2018-12-22T05:28:52.475Z,9.80
2018-12-22T05:32:56.094Z,9.80
2018-12-22T05:36:59.710Z,9.80
2018-12-22T05:41:03.345Z,9.80
2018-12-22T05:45:07.098Z,9.80
2018-12-22T05:49:10.670Z,9.80
2018-12-22T05:53:14.346Z,9.80
2018-12-22T05:57:17.942Z,9.70
2018-12-22T06:01:21.565Z,9.70
2018-12-22T06:05:25.177Z,9.70
2018-12-22T06:09:28.758Z,9.70
2018-12-22T06:13:32.462Z,9.70
2018-12-22T06:17:36.162Z,9.70
2018-12-22T06:21:39.868Z,9.70
2018-12-22T06:25:43.569Z,9.70
2018-12-22T06:29:47.198Z,9.70
2018-12-22T06:33:50.816Z,9.70
2018-12-22T06:37:54.546Z,9.70
2018-12-22T06:41:58.169Z,9.70
2018-12-22T06:46:01.778Z,9.70
2018-12-22T06:50:05.601Z,9.70
2018-12-22T06:54:09.199Z,9.60
2018-12-22T06:58:12.809Z,9.60
2018-12-22T07:02:16.421Z,9.60
2018-12-22T07:06:20.048Z,9.60
2018-12-22T07:10:25.529Z,9.60
2018-12-22T07:14:29.290Z,9.60
2018-12-22T07:18:32.927Z,9.60
2018-12-22T07:22:36.537Z,9.60
2018-12-22T07:26:40.145Z,9.60
2018-12-22T07:30:43.770Z,9.60
2018-12-22T07:34:47.349Z,9.60
2018-12-22T07:38:50.961Z,9.60
2018-12-22T07:42:54.626Z,9.50
2018-12-22T07:46:58.266Z,9.60
2018-12-22T07:51:01.894Z,9.60
2018-12-22T07:55:05.622Z,9.60
2018-12-22T07:59:09.255Z,9.60
2018-12-22T08:03:13.918Z,9.60
2018-12-22T08:07:17.946Z,9.50
2018-12-22T08:11:21.577Z,9.50
2018-12-22T08:15:25.209Z,9.60
2018-12-22T08:19:28.816Z,9.50
2018-12-22T08:23:32.553Z,9.50
2018-12-22T08:27:36.194Z,9.50
2018-12-22T08:31:39.822Z,9.50
2018-12-22T08:35:43.410Z,9.40
2018-12-22T08:39:47.045Z,9.50
2018-12-22T08:43:50.773Z,9.40
2018-12-22T08:50:45.201Z,9.40
2018-12-22T08:54:48.826Z,9.40
2018-12-22T08:58:52.472Z,9.30
2018-12-22T09:02:56.094Z,9.30
2018-12-22T09:06:59.799Z,9.30
2018-12-22T09:11:03.381Z,9.30
2018-12-22T09:15:08.239Z,9.30
2018-12-22T09:19:11.853Z,9.20
2018-12-22T09:23:15.471Z,9.20
2018-12-22T09:27:19.094Z,9.20
2018-12-22T09:31:22.704Z,9.20
2018-12-22T09:35:26.326Z,9.20
2018-12-22T09:39:30.077Z,9.10
2018-12-22T09:43:33.717Z,9.10
2018-12-22T09:47:37.347Z,9.10
2018-12-22T09:51:40.963Z,9.00
2018-12-22T09:55:44.672Z,9.00
2018-12-22T09:59:48.382Z,9.10
2018-12-22T10:03:52.048Z,9.10
2018-12-22T10:07:55.686Z,9.00
2018-12-22T10:11:59.312Z,9.00
2018-12-22T10:16:02.931Z,9.00
2018-12-22T10:20:07.890Z,8.90
2018-12-22T10:24:11.542Z,9.00
2018-12-22T10:28:15.234Z,9.00
2018-12-22T10:32:18.871Z,9.00
2018-12-22T10:36:22.643Z,9.10
2018-12-22T10:40:26.321Z,9.10
2018-12-22T10:44:30.026Z,9.10
2018-12-22T10:48:33.729Z,9.20
2018-12-22T10:52:37.379Z,9.20
2018-12-22T10:56:41.078Z,9.20
2018-12-22T11:00:44.724Z,9.20
2018-12-22T11:04:48.346Z,9.20
2018-12-22T11:08:52.003Z,9.30
2018-12-22T11:12:59.231Z,9.30
2018-12-22T11:17:02.988Z,9.30
2018-12-22T11:21:06.787Z,9.30
2018-12-22T11:25:16.555Z,9.30
2018-12-22T11:29:20.611Z,9.30
2018-12-22T11:33:24.233Z,9.30
2018-12-22T11:37:27.821Z,9.30
2018-12-22T11:41:31.523Z,9.30
2018-12-22T11:45:35.213Z,9.30
2018-12-22T11:49:42.472Z,9.30
2018-12-22T11:53:46.302Z,9.40
2018-12-22T11:57:49.913Z,9.40
2018-12-22T12:01:53.529Z,9.40
2018-12-22T12:05:57.136Z,9.40
2018-12-22T12:10:00.758Z,9.40
2018-12-22T12:14:04.374Z,9.50
2018-12-22T12:18:25.657Z,9.50
2018-12-22T12:22:29.248Z,9.50
2018-12-22T12:26:32.882Z,9.50
2018-12-22T12:30:36.582Z,9.50
2018-12-22T12:34:40.414Z,9.50
2018-12-22T12:38:44.015Z,9.60
2018-12-22T12:42:47.658Z,9.60
2018-12-22T12:46:52.879Z,9.60
2018-12-22T12:50:56.501Z,9.60
2018-12-22T12:55:00.359Z,9.60
2018-12-22T12:59:03.990Z,9.60
2018-12-22T13:03:08.482Z,9.60
2018-12-22T13:07:12.381Z,9.70
2018-12-22T13:11:15.995Z,9.60
2018-12-22T13:15:19.654Z,9.70
2018-12-22T13:19:23.289Z,9.70
2018-12-22T13:23:26.927Z,9.70
2018-12-22T13:27:30.549Z,9.70
2018-12-22T13:31:34.289Z,9.80
2018-12-22T13:35:37.911Z,9.90
2018-12-22T13:39:41.601Z,9.90
2018-12-22T13:43:45.200Z,10.00
2018-12-22T13:47:48.955Z,10.10
2018-12-22T13:51:52.656Z,10.10
2018-12-22T13:55:56.285Z,10.20
2018-12-22T13:59:59.907Z,10.20
2018-12-22T14:04:03.541Z,10.20
2018-12-22T14:08:07.156Z,10.10
2018-12-22T14:12:10.830Z,10.20
2018-12-22T14:16:22.373Z,10.10
2018-12-22T14:20:26.611Z,10.20
2018-12-22T14:24:43.040Z,10.20
2018-12-22T14:28:46.382Z,10.20
2018-12-22T14:32:50.021Z,10.30
2018-12-22T14:36:53.741Z,10.30
2018-12-22T14:40:57.374Z,10.40
2018-12-22T14:45:01.013Z,10.30
2018-12-22T14:49:04.640Z,10.10
2018-12-22T14:53:08.295Z,10.10
2018-12-22T14:57:12.047Z,10.10
2018-12-22T15:01:15.818Z,10.00
2018-12-22T15:05:19.685Z,9.90
2018-12-22T15:09:23.303Z,10.00
2018-12-22T15:13:26.950Z,9.90
2018-12-22T15:17:30.662Z,9.90
2018-12-22T15:21:34.304Z,9.90
2018-12-22T15:25:37.918Z,9.90
2018-12-22T15:29:41.530Z,10.00
2018-12-22T15:33:45.165Z,10.00
2018-12-22T15:37:48.820Z,10.00
2018-12-22T15:41:52.453Z,10.00
2018-12-22T15:45:56.106Z,9.90
2018-12-22T15:49:59.729Z,9.90
2018-12-22T15:54:03.567Z,10.00
2018-12-22T15:58:07.420Z,9.90
2018-12-22T16:02:11.086Z,10.00
2018-12-22T16:06:14.841Z,10.00
2018-12-22T16:10:18.712Z,10.00
2018-12-22T16:14:22.383Z,10.00
2018-12-22T16:18:26.042Z,10.00
2018-12-22T16:22:29.706Z,10.00
2018-12-22T16:26:33.348Z,10.00
2018-12-22T16:30:42.267Z,9.90
2018-12-22T16:34:46.942Z,9.80
2018-12-22T16:38:50.566Z,9.90
2018-12-22T16:42:57.357Z,9.80
2018-12-22T16:47:01.230Z,9.70
2018-12-22T16:51:04.953Z,9.70
2018-12-22T16:55:11.010Z,9.70
2018-12-22T16:59:14.685Z,9.80
2018-12-22T17:03:18.301Z,9.70
2018-12-22T17:07:21.956Z,9.70
2018-12-22T17:11:25.608Z,9.70
2018-12-22T17:15:29.270Z,9.70
2018-12-22T17:19:33.013Z,9.70
2018-12-22T17:23:45.185Z,9.60
2018-12-22T17:27:48.818Z,9.50
2018-12-22T17:31:52.529Z,9.50
2018-12-22T17:35:56.115Z,9.50
2018-12-22T17:39:59.758Z,9.40
2018-12-22T17:44:03.373Z,9.40
2018-12-22T17:48:06.998Z,9.50
2018-12-22T17:52:10.685Z,9.50
2018-12-22T17:56:14.258Z,9.40
2018-12-22T18:00:18.025Z,9.40
2018-12-22T18:04:21.745Z,9.40
2018-12-22T18:08:25.382Z,9.40
2018-12-22T18:12:28.958Z,9.40
2018-12-22T18:16:32.686Z,9.40
2018-12-22T18:20:36.306Z,9.30
2018-12-22T18:24:39.988Z,9.40
2018-12-22T18:28:43.686Z,9.40
2018-12-22T18:32:47.392Z,9.40
2018-12-22T18:36:51.009Z,9.40
2018-12-22T18:40:54.657Z,9.40
2018-12-22T18:44:58.274Z,9.50
2018-12-22T18:49:01.910Z,9.40
2018-12-22T18:53:05.516Z,9.40
2018-12-22T18:57:09.157Z,9.40
2018-12-22T19:01:12.810Z,9.40
2018-12-22T19:05:16.786Z,9.30
2018-12-22T19:09:24.165Z,9.40
2018-12-22T19:13:27.807Z,9.30
2018-12-22T19:17:31.461Z,9.30
2018-12-22T19:21:35.082Z,9.40
2018-12-22T19:25:38.702Z,9.40
2018-12-22T19:29:42.424Z,9.20
2018-12-22T19:33:53.284Z,9.30
2018-12-22T19:37:51.688Z,9.30
2018-12-22T19:41:55.301Z,9.20
2018-12-22T19:45:58.925Z,9.20
2018-12-22T19:50:02.520Z,9.40
2018-12-22T19:54:06.147Z,9.40
2018-12-22T19:58:09.760Z,9.40
2018-12-22T20:02:13.493Z,9.30
2018-12-22T20:06:17.243Z,9.30
2018-12-22T20:10:20.859Z,9.30
2018-12-22T20:14:24.466Z,9.40
2018-12-22T20:18:28.085Z,9.50
2018-12-22T20:22:31.698Z,9.40
2018-12-22T20:26:35.327Z,9.50
2018-12-22T20:30:38.958Z,9.50
2018-12-22T20:34:42.570Z,9.50
2018-12-22T20:38:46.203Z,9.60
2018-12-22T20:42:49.912Z,9.50
2018-12-22T20:46:53.575Z,9.60
2018-12-22T20:50:57.166Z,9.50
2018-12-22T20:55:00.794Z,9.50
2018-12-22T20:59:04.569Z,9.50
2018-12-22T21:03:08.442Z,9.50
2018-12-22T21:07:12.063Z,9.40
2018-12-22T21:11:15.657Z,9.40
2018-12-22T21:15:19.305Z,9.30
2018-12-22T21:19:22.944Z,9.30
2018-12-22T21:23:26.625Z,9.30
2018-12-22T21:27:30.242Z,9.20
2018-12-22T21:31:33.818Z,9.20
2018-12-22T21:35:37.441Z,9.20
2018-12-22T21:39:41.085Z,9.10
2018-12-22T21:43:44.784Z,9.20
2018-12-22T21:47:48.386Z,9.10
2018-12-22T21:51:52.075Z,9.10
2018-12-22T21:55:55.685Z,9.10
2018-12-22T21:59:59.302Z,9.10
2018-12-22T22:04:02.918Z,9.20
2018-12-22T22:08:06.994Z,9.20
2018-12-22T22:12:10.585Z,9.20
2018-12-22T22:16:14.241Z,9.20
2018-12-22T22:20:17.862Z,9.20
2018-12-22T22:24:21.486Z,9.20
2018-12-22T22:28:25.102Z,9.20
2018-12-22T22:32:28.705Z,9.20
2018-12-22T22:36:32.323Z,9.20
2018-12-22T22:40:35.948Z,9.20
2018-12-22T22:44:39.724Z,9.20
2018-12-22T22:48:44.080Z,9.30
2018-12-22T22:52:47.738Z,9.30
2018-12-22T22:56:51.373Z,9.30
2018-12-22T23:00:55.060Z,9.30
2018-12-22T23:04:58.726Z,9.30
2018-12-22T23:09:02.345Z,9.30
2018-12-22T23:13:06.041Z,9.30
2018-12-22T23:17:09.694Z,9.30
2018-12-22T23:21:13.323Z,9.30
2018-12-22T23:25:16.948Z,9.30
2018-12-22T23:29:20.690Z,9.30
2018-12-22T23:33:24.310Z,9.30
2018-12-22T23:37:27.922Z,9.20
2018-12-22T23:41:31.534Z,9.20
2018-12-22T23:45:35.211Z,9.20
2018-12-22T23:49:39.155Z,9.20
2018-12-22T23:53:42.720Z,9.20
2018-12-22T23:57:46.343Z,9.20
